This is the latest recevied weather packets stored in our database for station/object DB0TV-13. If no packets are shown the sender has not sent any weather packets the latest 10 day(s).
| Time | Temp. | Humidity | Pressure | Rain* | Wind** | Luminosity | Snow |
|---|---|---|---|---|---|---|---|
| 1777818020 | 16.67° C | 72% | 1011.5 hPa | 0 mm | - | 242 W/m² | - |
| 1777817420 | 16.67° C | 71% | 1011.4 hPa | 0 mm | - | 268 W/m² | - |
| 1777816820 | 17.22° C | 69% | 1011.5 hPa | 0 mm | - | 255 W/m² | - |
| 1777816218 | 18.89° C | 62% | 1011.4 hPa | 0 mm | - | 192 W/m² | - |
| 1777815619 | 18.89° C | 57% | 1011.6 hPa | 0 mm | - | 297 W/m² | - |
| 1777815020 | 18.89° C | 56% | 1011.7 hPa | 0 mm | - | 284 W/m² | - |
| 1777814420 | 18.89° C | 56% | 1011.6 hPa | 0 mm | - | 307 W/m² | - |
| 1777813819 | 19.44° C | 54% | 1011.6 hPa | 0 mm | - | 354 W/m² | - |
| 1777813220 | 20° C | 53% | 1011.7 hPa | 0 mm | - | 402 W/m² | - |
| 1777812620 | 20° C | 53% | 1011.7 hPa | 0 mm | - | 364 W/m² | - |
| 1777812020 | 20.56° C | 51% | 1011.7 hPa | 0 mm | - | 517 W/m² | - |
| 1777811419 | 20.56° C | 50% | 1011.6 hPa | 0 mm | - | 549 W/m² | - |
| 1777810819 | 20.56° C | 50% | 1011.7 hPa | 0 mm | - | 522 W/m² | - |
| 1777810220 | 20.56° C | 51% | 1011.6 hPa | 0 mm | - | 735 W/m² | - |
| 1777809620 | 20° C | 50% | 1011.6 hPa | 0 mm | - | 501 W/m² | - |
| 1777809019 | 20° C | 50% | 1011.7 hPa | 0 mm | - | 978 W/m² | - |
| 1777808419 | 19.44° C | 50% | 1011.8 hPa | 0 mm | - | 415 W/m² | - |
| 1777807820 | 20° C | 48% | 1011.9 hPa | 0 mm | - | 407 W/m² | - |
| 1777807220 | 20° C | 46% | 1011.7 hPa | 0 mm | - | 502 W/m² | - |
| 1777806620 | 20.56° C | 45% | 1011.8 hPa | 0 mm | - | 518 W/m² | - |
| 1777806019 | 20.56° C | 44% | 1011.7 hPa | 0 mm | - | 848 W/m² | - |
| 1777805420 | 20° C | 44% | 1011.7 hPa | 0 mm | - | 454 W/m² | - |
| 1777804820 | 20.56° C | 44% | 1011.7 hPa | 0 mm | - | 629 W/m² | - |
| 1777804219 | 20.56° C | 45% | 1011.8 hPa | 0 mm | - | 497 W/m² | - |
| 1777803619 | 21.11° C | 44% | 1011.6 hPa | 0 mm | - | 971 W/m² | - |
* Rain latest hour (hover to see other rain measurements)
** Current wind speed in m/s (hover to see current wind gust speed)